sensor_id;sensor_type;location;lat;lon;timestamp;pressure;altitude;pressure_sealevel;temperature;humidity
61506;BME280;47366;51.916;4.574;2023-05-09T04:23:29;101586.38;;;14.29;89.33
61506;BME280;47366;51.916;4.574;2023-05-09T04:25:54;101576.47;;;14.28;89.29
61506;BME280;47366;51.916;4.574;2023-05-09T04:28:21;101574.53;;;14.30;89.57
61506;BME280;47366;51.916;4.574;2023-05-09T04:30:46;101580.72;;;14.32;88.99
61506;BME280;47366;51.916;4.574;2023-05-09T04:33:11;101587.72;;;14.36;89.28
61506;BME280;47366;51.916;4.574;2023-05-09T04:35:37;101576.91;;;14.35;89.20
61506;BME280;47366;51.916;4.574;2023-05-09T04:38:02;101571.59;;;14.33;89.83
61506;BME280;47366;51.916;4.574;2023-05-09T04:40:29;101566.22;;;14.32;90.09
61506;BME280;47366;51.916;4.574;2023-05-09T04:42:55;101562.94;;;14.27;90.96
61506;BME280;47366;51.916;4.574;2023-05-09T04:45:21;101563.94;;;14.26;91.07
61506;BME280;47366;51.916;4.574;2023-05-09T04:47:46;101555.31;;;14.32;90.25
61506;BME280;47366;51.916;4.574;2023-05-09T04:50:12;101542.56;;;14.32;90.90
61506;BME280;47366;51.916;4.574;2023-05-09T04:52:37;101541.59;;;14.33;89.76
61506;BME280;47366;51.916;4.574;2023-05-09T04:55:03;101538.09;;;14.31;90.89
61506;BME280;47366;51.916;4.574;2023-05-09T04:57:28;101533.66;;;14.30;89.90
61506;BME280;47366;51.916;4.574;2023-05-09T04:59:53;101530.78;;;14.32;90.97
61506;BME280;47366;51.916;4.574;2023-05-09T05:02:19;101527.13;;;14.33;90.73
61506;BME280;47366;51.916;4.574;2023-05-09T05:04:45;101526.13;;;14.34;90.18
61506;BME280;47366;51.916;4.574;2023-05-09T05:07:10;101522.75;;;14.30;89.92
61506;BME280;47366;51.916;4.574;2023-05-09T05:09:36;101512.81;;;14.29;89.48
61506;BME280;47366;51.916;4.574;2023-05-09T05:12:01;101521.66;;;14.33;90.34
61506;BME280;47366;51.916;4.574;2023-05-09T05:14:26;101517.94;;;14.34;90.40
61506;BME280;47366;51.916;4.574;2023-05-09T05:16:52;101520.03;;;14.30;91.25
61506;BME280;47366;51.916;4.574;2023-05-09T05:19:17;101515.31;;;14.32;90.19
61506;BME280;47366;51.916;4.574;2023-05-09T05:21:42;101513.56;;;14.31;90.96
61506;BME280;47366;51.916;4.574;2023-05-09T05:24:07;101511.63;;;14.33;91.29
61506;BME280;47366;51.916;4.574;2023-05-09T05:26:33;101512.72;;;14.31;90.62
61506;BME280;47366;51.916;4.574;2023-05-09T05:28:58;101525.34;;;14.32;90.84
61506;BME280;47366;51.916;4.574;2023-05-09T05:31:24;101502.88;;;14.28;90.62
61506;BME280;47366;51.916;4.574;2023-05-09T05:33:50;101515.44;;;14.31;91.42
61506;BME280;47366;51.916;4.574;2023-05-09T05:36:15;101512.03;;;14.27;91.64
61506;BME280;47366;51.916;4.574;2023-05-09T05:38:41;101506.56;;;14.27;91.52
61506;BME280;47366;51.916;4.574;2023-05-09T05:41:06;101514.09;;;14.23;92.94
61506;BME280;47366;51.916;4.574;2023-05-09T05:43:35;101508.94;;;14.19;91.20
61506;BME280;47366;51.916;4.574;2023-05-09T05:46:00;101508.72;;;14.22;92.55
61506;BME280;47366;51.916;4.574;2023-05-09T05:48:26;101512.75;;;14.16;92.88
61506;BME280;47366;51.916;4.574;2023-05-09T05:50:51;101514.50;;;14.17;93.34
61506;BME280;47366;51.916;4.574;2023-05-09T05:53:16;101510.97;;;14.15;94.01
61506;BME280;47366;51.916;4.574;2023-05-09T05:55:42;101501.16;;;14.13;93.50
61506;BME280;47366;51.916;4.574;2023-05-09T05:58:09;101505.44;;;14.17;94.06
61506;BME280;47366;51.916;4.574;2023-05-09T06:00:35;101507.47;;;14.13;93.79
61506;BME280;47366;51.916;4.574;2023-05-09T06:03:00;101498.34;;;14.14;93.00
61506;BME280;47366;51.916;4.574;2023-05-09T06:05:26;101495.72;;;14.13;94.45
61506;BME280;47366;51.916;4.574;2023-05-09T06:07:51;101493.97;;;14.12;94.21
61506;BME280;47366;51.916;4.574;2023-05-09T06:10:16;101492.34;;;14.09;95.10
61506;BME280;47366;51.916;4.574;2023-05-09T06:12:41;101492.13;;;14.12;94.81
61506;BME280;47366;51.916;4.574;2023-05-09T06:15:07;101484.50;;;14.17;93.81
61506;BME280;47366;51.916;4.574;2023-05-09T06:17:33;101482.22;;;14.11;95.77
61506;BME280;47366;51.916;4.574;2023-05-09T06:19:58;101499.31;;;14.13;94.58
61506;BME280;47366;51.916;4.574;2023-05-09T06:22:24;101479.22;;;14.01;95.30
61506;BME280;47366;51.916;4.574;2023-05-09T06:24:49;101481.75;;;14.05;95.13
61506;BME280;47366;51.916;4.574;2023-05-09T06:27:14;101483.28;;;14.09;94.28
61506;BME280;47366;51.916;4.574;2023-05-09T06:29:40;101482.53;;;14.07;95.15
61506;BME280;47366;51.916;4.574;2023-05-09T06:32:05;101472.78;;;14.02;95.50
61506;BME280;47366;51.916;4.574;2023-05-09T06:34:31;101472.69;;;14.04;95.15
61506;BME280;47366;51.916;4.574;2023-05-09T06:36:56;101473.56;;;14.05;95.96
61506;BME280;47366;51.916;4.574;2023-05-09T06:39:21;101472.78;;;14.02;95.62
61506;BME280;47366;51.916;4.574;2023-05-09T06:41:47;101467.44;;;14.01;96.92
61506;BME280;47366;51.916;4.574;2023-05-09T06:44:12;101460.00;;;13.90;97.38
61506;BME280;47366;51.916;4.574;2023-05-09T06:46:37;101463.06;;;13.98;96.66
61506;BME280;47366;51.916;4.574;2023-05-09T06:49:03;101461.59;;;14.07;96.10
61506;BME280;47366;51.916;4.574;2023-05-09T06:51:30;101452.00;;;14.01;95.85
61506;BME280;47366;51.916;4.574;2023-05-09T06:53:56;101457.09;;;14.06;96.22
61506;BME280;47366;51.916;4.574;2023-05-09T06:56:22;101449.63;;;14.10;95.33
61506;BME280;47366;51.916;4.574;2023-05-09T06:58:49;101450.38;;;14.12;95.76
61506;BME280;47366;51.916;4.574;2023-05-09T07:01:15;101447.09;;;14.07;97.08
61506;BME280;47366;51.916;4.574;2023-05-09T07:03:41;101444.16;;;14.10;95.87
61506;BME280;47366;51.916;4.574;2023-05-09T07:06:07;101446.03;;;14.09;96.89
61506;BME280;47366;51.916;4.574;2023-05-09T07:08:32;101433.06;;;14.13;95.54
61506;BME280;47366;51.916;4.574;2023-05-09T07:10:57;101427.91;;;14.08;97.87
61506;BME280;47366;51.916;4.574;2023-05-09T07:13:23;101429.69;;;14.09;97.63
61506;BME280;47366;51.916;4.574;2023-05-09T07:15:48;101423.25;;;14.10;97.15
61506;BME280;47366;51.916;4.574;2023-05-09T07:18:13;101422.47;;;14.08;98.17
61506;BME280;47366;51.916;4.574;2023-05-09T07:20:38;101411.47;;;14.10;96.95
61506;BME280;47366;51.916;4.574;2023-05-09T07:23:04;101414.84;;;14.13;97.09
61506;BME280;47366;51.916;4.574;2023-05-09T07:25:30;101402.53;;;14.08;97.98
61506;BME280;47366;51.916;4.574;2023-05-09T07:27:55;101400.56;;;14.10;97.31
61506;BME280;47366;51.916;4.574;2023-05-09T07:30:21;101395.34;;;14.07;98.71
61506;BME280;47366;51.916;4.574;2023-05-09T07:32:46;101393.06;;;14.13;98.12
61506;BME280;47366;51.916;4.574;2023-05-09T07:35:11;101398.41;;;14.15;96.81
61506;BME280;47366;51.916;4.574;2023-05-09T07:37:37;101392.09;;;14.14;97.90
61506;BME280;47366;51.916;4.574;2023-05-09T07:40:02;101389.28;;;14.16;99.02
61506;BME280;47366;51.916;4.574;2023-05-09T07:42:30;101383.69;;;14.17;97.75
61506;BME280;47366;51.916;4.574;2023-05-09T07:44:56;101380.88;;;14.19;99.79
61506;BME280;47366;51.916;4.574;2023-05-09T07:47:23;101381.66;;;14.21;99.36
61506;BME280;47366;51.916;4.574;2023-05-09T07:49:48;101377.84;;;14.23;99.21
61506;BME280;47366;51.916;4.574;2023-05-09T07:52:14;101377.72;;;14.25;100.00
61506;BME280;47366;51.916;4.574;2023-05-09T07:54:41;101365.09;;;14.24;98.89
61506;BME280;47366;51.916;4.574;2023-05-09T07:57:06;101371.72;;;14.20;100.00
61506;BME280;47366;51.916;4.574;2023-05-09T07:59:32;101376.31;;;14.19;100.00
61506;BME280;47366;51.916;4.574;2023-05-09T08:01:57;101360.81;;;14.20;100.00
61506;BME280;47366;51.916;4.574;2023-05-09T08:04:23;101374.56;;;14.18;100.00
61506;BME280;47366;51.916;4.574;2023-05-09T08:06:48;101361.69;;;14.20;100.00
61506;BME280;47366;51.916;4.574;2023-05-09T08:09:13;101352.97;;;14.15;100.00
61506;BME280;47366;51.916;4.574;2023-05-09T08:11:38;101347.72;;;14.12;100.00
61506;BME280;47366;51.916;4.574;2023-05-09T08:14:04;101347.63;;;14.14;100.00
61506;BME280;47366;51.916;4.574;2023-05-09T08:16:29;101344.91;;;14.14;100.00
61506;BME280;47366;51.916;4.574;2023-05-09T08:18:54;101349.47;;;14.13;100.00
61506;BME280;47366;51.916;4.574;2023-05-09T08:21:20;101342.28;;;14.12;100.00
61506;BME280;47366;51.916;4.574;2023-05-09T08:23:46;101330.41;;;14.13;100.00
61506;BME280;47366;51.916;4.574;2023-05-09T08:26:11;101335.53;;;14.18;100.00
61506;BME280;47366;51.916;4.574;2023-05-09T08:28:37;101331.84;;;14.19;100.00
61506;BME280;47366;51.916;4.574;2023-05-09T08:31:02;101332.06;;;14.16;100.00
61506;BME280;47366;51.916;4.574;2023-05-09T08:33:27;101326.41;;;14.19;100.00
61506;BME280;47366;51.916;4.574;2023-05-09T08:35:53;101318.09;;;14.20;100.00
61506;BME280;47366;51.916;4.574;2023-05-09T08:38:19;101324.44;;;14.21;99.64
61506;BME280;47366;51.916;4.574;2023-05-09T08:40:44;101320.94;;;14.19;100.00
61506;BME280;47366;51.916;4.574;2023-05-09T08:43:11;101319.31;;;14.16;100.00
61506;BME280;47366;51.916;4.574;2023-05-09T08:45:50;101316.44;;;14.18;100.00
61506;BME280;47366;51.916;4.574;2023-05-09T08:48:16;101309.06;;;14.20;100.00
61506;BME280;47366;51.916;4.574;2023-05-09T08:50:42;101311.69;;;14.21;100.00
61506;BME280;47366;51.916;4.574;2023-05-09T08:53:08;101313.00;;;14.16;100.00
61506;BME280;47366;51.916;4.574;2023-05-09T08:55:33;101308.50;;;14.15;100.00
61506;BME280;47366;51.916;4.574;2023-05-09T08:57:59;101307.31;;;14.19;100.00
61506;BME280;47366;51.916;4.574;2023-05-09T09:00:25;101310.03;;;14.19;100.00
61506;BME280;47366;51.916;4.574;2023-05-09T09:02:51;101305.47;;;14.19;100.00
61506;BME280;47366;51.916;4.574;2023-05-09T09:05:17;101303.59;;;14.20;100.00
61506;BME280;47366;51.916;4.574;2023-05-09T09:07:43;101301.88;;;14.19;100.00
61506;BME280;47366;51.916;4.574;2023-05-09T09:10:10;101299.03;;;14.20;100.00
61506;BME280;47366;51.916;4.574;2023-05-09T09:12:36;101299.16;;;14.19;100.00
61506;BME280;47366;51.916;4.574;2023-05-09T09:15:04;101291.75;;;14.21;100.00
61506;BME280;47366;51.916;4.574;2023-05-09T09:17:30;101281.03;;;14.18;100.00
61506;BME280;47366;51.916;4.574;2023-05-09T09:19:59;101288.69;;;14.26;100.00
61506;BME280;47366;51.916;4.574;2023-05-09T09:22:31;101292.28;;;14.26;100.00
61506;BME280;47366;51.916;4.574;2023-05-09T09:25:01;101293.25;;;14.25;100.00
61506;BME280;47366;51.916;4.574;2023-05-09T09:27:27;101291.50;;;14.24;100.00
61506;BME280;47366;51.916;4.574;2023-05-09T09:29:53;101283.44;;;14.22;100.00
61506;BME280;47366;51.916;4.574;2023-05-09T09:32:18;101280.53;;;14.26;100.00
61506;BME280;47366;51.916;4.574;2023-05-09T09:34:48;101276.72;;;14.28;100.00
61506;BME280;47366;51.916;4.574;2023-05-09T09:37:20;101276.72;;;14.28;100.00
61506;BME280;47366;51.916;4.574;2023-05-09T09:39:54;101275.81;;;14.28;100.00
61506;BME280;47366;51.916;4.574;2023-05-09T09:42:20;101275.81;;;14.28;100.00
61506;BME280;47366;51.916;4.574;2023-05-09T09:44:51;101277.34;;;14.32;100.00
61506;BME280;47366;51.916;4.574;2023-05-09T09:47:30;101269.50;;;14.27;100.00
61506;BME280;47366;51.916;4.574;2023-05-09T09:49:55;101271.44;;;14.25;100.00
61506;BME280;47366;51.916;4.574;2023-05-09T09:52:22;101277.91;;;14.24;100.00
61506;BME280;47366;51.916;4.574;2023-05-09T09:54:48;101271.34;;;14.27;100.00
61506;BME280;47366;51.916;4.574;2023-05-09T09:57:32;101268.72;;;14.25;100.00
61506;BME280;47366;51.916;4.574;2023-05-09T09:59:58;101266.56;;;14.30;100.00
61506;BME280;47366;51.916;4.574;2023-05-09T10:02:23;101264.81;;;14.29;100.00
61506;BME280;47366;51.916;4.574;2023-05-09T10:04:49;101267.13;;;14.35;100.00
61506;BME280;47366;51.916;4.574;2023-05-09T10:07:14;101269.63;;;14.38;100.00
61506;BME280;47366;51.916;4.574;2023-05-09T10:09:40;101267.66;;;14.40;100.00
61506;BME280;47366;51.916;4.574;2023-05-09T10:12:07;101262.09;;;14.42;100.00
61506;BME280;47366;51.916;4.574;2023-05-09T10:14:34;101262.44;;;14.37;100.00
61506;BME280;47366;51.916;4.574;2023-05-09T10:17:01;101254.13;;;14.39;100.00
61506;BME280;47366;51.916;4.574;2023-05-09T10:19:28;101256.75;;;14.40;100.00
61506;BME280;47366;51.916;4.574;2023-05-09T10:22:00;101259.03;;;14.47;100.00
61506;BME280;47366;51.916;4.574;2023-05-09T10:25:16;101251.84;;;14.45;100.00
61506;BME280;47366;51.916;4.574;2023-05-09T10:27:18;101259.16;;;14.45;100.00
61506;BME280;47366;51.916;4.574;2023-05-09T10:29:49;101251.31;;;14.40;100.00
61506;BME280;47366;51.916;4.574;2023-05-09T10:35:17;101239.63;;;14.38;100.00
61506;BME280;47366;51.916;4.574;2023-05-09T10:37:44;101245.09;;;14.38;100.00
61506;BME280;47366;51.916;4.574;2023-05-09T10:40:10;101240.81;;;14.34;100.00
61506;BME280;47366;51.916;4.574;2023-05-09T10:42:43;101230.78;;;14.35;100.00
61506;BME280;47366;51.916;4.574;2023-05-09T10:45:12;101234.19;;;14.38;100.00
61506;BME280;47366;51.916;4.574;2023-05-09T10:47:39;101231.38;;;14.40;100.00
61506;BME280;47366;51.916;4.574;2023-05-09T10:50:07;101223.19;;;14.40;100.00
61506;BME280;47366;51.916;4.574;2023-05-09T10:52:33;101214.91;;;14.29;100.00
61506;BME280;47366;51.916;4.574;2023-05-09T10:54:59;101223.50;;;14.35;100.00
61506;BME280;47366;51.916;4.574;2023-05-09T10:57:27;101216.09;;;14.37;100.00
61506;BME280;47366;51.916;4.574;2023-05-09T10:59:54;101213.25;;;14.39;100.00
61506;BME280;47366;51.916;4.574;2023-05-09T11:02:21;101220.31;;;14.41;100.00
61506;BME280;47366;51.916;4.574;2023-05-09T11:07:38;101204.44;;;14.35;100.00
61506;BME280;47366;51.916;4.574;2023-05-09T11:10:07;101215.22;;;14.37;100.00
61506;BME280;47366;51.916;4.574;2023-05-09T11:12:32;101204.09;;;14.40;100.00
61506;BME280;47366;51.916;4.574;2023-05-09T11:15:06;101204.09;;;14.40;100.00
61506;BME280;47366;51.916;4.574;2023-05-09T11:17:36;101192.78;;;14.33;100.00
61506;BME280;47366;51.916;4.574;2023-05-09T11:20:03;101196.25;;;14.35;100.00
61506;BME280;47366;51.916;4.574;2023-05-09T11:22:43;101189.91;;;14.35;100.00
61506;BME280;47366;51.916;4.574;2023-05-09T11:25:10;101197.69;;;14.28;100.00
61506;BME280;47366;51.916;4.574;2023-05-09T11:27:49;101197.22;;;14.34;100.00
61506;BME280;47366;51.916;4.574;2023-05-09T11:30:16;101196.13;;;14.37;100.00
61506;BME280;47366;51.916;4.574;2023-05-09T11:32:46;101196.03;;;14.38;100.00
61506;BME280;47366;51.916;4.574;2023-05-09T11:35:14;101180.69;;;14.37;100.00
61506;BME280;47366;51.916;4.574;2023-05-09T11:37:46;101188.38;;;14.43;100.00
61506;BME280;47366;51.916;4.574;2023-05-09T11:40:13;101184.56;;;14.46;100.00
61506;BME280;47366;51.916;4.574;2023-05-09T11:42:44;101189.91;;;14.48;100.00
61506;BME280;47366;51.916;4.574;2023-05-09T11:45:11;101181.31;;;14.41;100.00
61506;BME280;47366;51.916;4.574;2023-05-09T11:47:37;101182.31;;;14.40;100.00
61506;BME280;47366;51.916;4.574;2023-05-09T11:50:11;101178.69;;;14.39;100.00
61506;BME280;47366;51.916;4.574;2023-05-09T11:52:37;101176.38;;;14.46;100.00
61506;BME280;47366;51.916;4.574;2023-05-09T11:55:12;101165.50;;;14.46;100.00
61506;BME280;47366;51.916;4.574;2023-05-09T11:57:39;101162.91;;;14.44;100.00
61506;BME280;47366;51.916;4.574;2023-05-09T12:00:05;101168.34;;;14.44;100.00
61506;BME280;47366;51.916;4.574;2023-05-09T12:02:31;101170.50;;;14.39;100.00
61506;BME280;47366;51.916;4.574;2023-05-09T12:05:09;101168.00;;;14.36;100.00
61506;BME280;47366;51.916;4.574;2023-05-09T12:07:38;101158.09;;;14.35;100.00
61506;BME280;47366;51.916;4.574;2023-05-09T12:10:09;101165.28;;;14.36;100.00
61506;BME280;47366;51.916;4.574;2023-05-09T12:12:36;101152.84;;;14.32;100.00
61506;BME280;47366;51.916;4.574;2023-05-09T12:15:06;101159.84;;;14.36;100.00
61506;BME280;47366;51.916;4.574;2023-05-09T12:17:32;101154.38;;;14.36;100.00
61506;BME280;47366;51.916;4.574;2023-05-09T12:19:58;101156.34;;;14.34;100.00
61506;BME280;47366;51.916;4.574;2023-05-09T12:22:25;101152.66;;;14.35;100.00
61506;BME280;47366;51.916;4.574;2023-05-09T12:24:50;101139.22;;;14.32;100.00
61506;BME280;47366;51.916;4.574;2023-05-09T12:27:16;101149.78;;;14.37;100.00
61506;BME280;47366;51.916;4.574;2023-05-09T12:29:43;101139.91;;;14.36;100.00
61506;BME280;47366;51.916;4.574;2023-05-09T12:32:11;101136.84;;;14.40;100.00
61506;BME280;47366;51.916;4.574;2023-05-09T12:34:38;101142.28;;;14.40;100.00
61506;BME280;47366;51.916;4.574;2023-05-09T12:37:16;101140.44;;;14.41;100.00
61506;BME280;47366;51.916;4.574;2023-05-09T12:39:59;101140.19;;;14.44;100.00
61506;BME280;47366;51.916;4.574;2023-05-09T12:42:27;101133.88;;;14.43;100.00
61506;BME280;47366;51.916;4.574;2023-05-09T12:44:53;101132.44;;;14.51;100.00
61506;BME280;47366;51.916;4.574;2023-05-09T12:47:18;101131.69;;;14.49;100.00
61506;BME280;47366;51.916;4.574;2023-05-09T12:49:47;101129.72;;;14.51;100.00
61506;BME280;47366;51.916;4.574;2023-05-09T12:52:17;101129.50;;;14.54;100.00
61506;BME280;47366;51.916;4.574;2023-05-09T12:54:46;101132.03;;;14.57;100.00
61506;BME280;47366;51.916;4.574;2023-05-09T12:57:23;101125.72;;;14.56;100.00
61506;BME280;47366;51.916;4.574;2023-05-09T12:59:48;101123.00;;;14.56;100.00
61506;BME280;47366;51.916;4.574;2023-05-09T13:02:14;101123.84;;;14.57;100.00
61506;BME280;47366;51.916;4.574;2023-05-09T13:04:39;101117.53;;;14.56;100.00
61506;BME280;47366;51.916;4.574;2023-05-09T13:07:08;101113.16;;;14.54;100.00
61506;BME280;47366;51.916;4.574;2023-05-09T13:09:34;101120.38;;;14.55;100.00
61506;BME280;47366;51.916;4.574;2023-05-09T13:12:01;101119.28;;;14.57;100.00
61506;BME280;47366;51.916;4.574;2023-05-09T13:14:28;101108.38;;;14.57;100.00
61506;BME280;47366;51.916;4.574;2023-05-09T13:16:53;101109.00;;;14.61;100.00
61506;BME280;47366;51.916;4.574;2023-05-09T13:19:19;101116.63;;;14.69;100.00
61506;BME280;47366;51.916;4.574;2023-05-09T13:21:44;101112.91;;;14.70;100.00
61506;BME280;47366;51.916;4.574;2023-05-09T13:24:10;101094.16;;;14.65;100.00
61506;BME280;47366;51.916;4.574;2023-05-09T13:26:35;101096.13;;;14.63;100.00
61506;BME280;47366;51.916;4.574;2023-05-09T13:29:00;101095.50;;;14.59;100.00
61506;BME280;47366;51.916;4.574;2023-05-09T13:31:26;101104.22;;;14.52;100.00
61506;BME280;47366;51.916;4.574;2023-05-09T13:33:51;101108.03;;;14.49;100.00
61506;BME280;47366;51.916;4.574;2023-05-09T13:36:17;101111.97;;;14.45;100.00
61506;BME280;47366;51.916;4.574;2023-05-09T13:38:42;101096.38;;;14.47;100.00
61506;BME280;47366;51.916;4.574;2023-05-09T13:41:10;101100.84;;;14.48;100.00
61506;BME280;47366;51.916;4.574;2023-05-09T13:43:37;101102.59;;;14.49;100.00
61506;BME280;47366;51.916;4.574;2023-05-09T13:46:03;101097.13;;;14.49;100.00
61506;BME280;47366;51.916;4.574;2023-05-09T13:48:28;101097.56;;;14.56;100.00
61506;BME280;47366;51.916;4.574;2023-05-09T13:50:53;101100.41;;;14.54;100.00
61506;BME280;47366;51.916;4.574;2023-05-09T13:53:20;101097.56;;;14.56;100.00
61506;BME280;47366;51.916;4.574;2023-05-09T13:55:45;101099.41;;;14.55;100.00
61506;BME280;47366;51.916;4.574;2023-05-09T13:58:11;101094.28;;;14.51;100.00
61506;BME280;47366;51.916;4.574;2023-05-09T14:00:37;101088.72;;;14.52;100.00
61506;BME280;47366;51.916;4.574;2023-05-09T14:03:02;101087.84;;;14.52;100.00
61506;BME280;47366;51.916;4.574;2023-05-09T14:05:30;101087.84;;;14.52;100.00
61506;BME280;47366;51.916;4.574;2023-05-09T14:07:55;101077.63;;;14.55;100.00
61506;BME280;47366;51.916;4.574;2023-05-09T14:10:21;101079.47;;;14.55;100.00
61506;BME280;47366;51.916;4.574;2023-05-09T14:12:48;101073.69;;;14.59;100.00
61506;BME280;47366;51.916;4.574;2023-05-09T14:15:13;101071.94;;;14.58;100.00
61506;BME280;47366;51.916;4.574;2023-05-09T14:17:38;101077.38;;;14.58;100.00
61506;BME280;47366;51.916;4.574;2023-05-09T14:20:05;101075.22;;;14.63;100.00
61506;BME280;47366;51.916;4.574;2023-05-09T14:22:30;101066.59;;;14.57;100.00
61506;BME280;47366;51.916;4.574;2023-05-09T14:24:56;101073.69;;;14.59;100.00
61506;BME280;47366;51.916;4.574;2023-05-09T14:27:21;101074.88;;;14.55;100.00
61506;BME280;47366;51.916;4.574;2023-05-09T14:29:47;101062.13;;;14.56;100.00
61506;BME280;47366;51.916;4.574;2023-05-09T14:32:13;101066.91;;;14.52;100.00
61506;BME280;47366;51.916;4.574;2023-05-09T14:34:39;101059.59;;;14.53;100.00
61506;BME280;47366;51.916;4.574;2023-05-09T14:37:04;101063.03;;;14.56;100.00
61506;BME280;47366;51.916;4.574;2023-05-09T14:39:40;101050.00;;;14.60;100.00
61506;BME280;47366;51.916;4.574;2023-05-09T14:42:06;101049.38;;;14.56;100.00
61506;BME280;47366;51.916;4.574;2023-05-09T14:44:35;101051.34;;;14.54;100.00
61506;BME280;47366;51.916;4.574;2023-05-09T14:47:00;101047.84;;;14.52;100.00
61506;BME280;47366;51.916;4.574;2023-05-09T14:49:26;101046.97;;;14.52;100.00
61506;BME280;47366;51.916;4.574;2023-05-09T14:51:51;101040.44;;;14.54;100.00
61506;BME280;47366;51.916;4.574;2023-05-09T14:54:16;101038.34;;;14.58;100.00
61506;BME280;47366;51.916;4.574;2023-05-09T14:56:42;101029.63;;;14.53;100.00
61506;BME280;47366;51.916;4.574;2023-05-09T14:59:07;101042.84;;;14.59;100.00
61506;BME280;47366;51.916;4.574;2023-05-09T15:01:33;101030.06;;;14.59;100.00
61506;BME280;47366;51.916;4.574;2023-05-09T15:03:58;101031.47;;;14.52;100.00
61506;BME280;47366;51.916;4.574;2023-05-09T15:06:24;101032.06;;;14.44;100.00
61506;BME280;47366;51.916;4.574;2023-05-09T15:08:49;101023.13;;;14.42;100.00
61506;BME280;47366;51.916;4.574;2023-05-09T15:11:15;101029.34;;;14.44;100.00
61506;BME280;47366;51.916;4.574;2023-05-09T15:13:40;101024.84;;;14.43;100.00
61506;BME280;47366;51.916;4.574;2023-05-09T15:16:05;101024.44;;;14.37;100.00
61506;BME280;47366;51.916;4.574;2023-05-09T15:18:31;101035.13;;;14.40;100.00
61506;BME280;47366;51.916;4.574;2023-05-09T15:20:57;101018.13;;;14.36;100.00
61506;BME280;47366;51.916;4.574;2023-05-09T15:23:23;101019.31;;;14.32;100.00
61506;BME280;47366;51.916;4.574;2023-05-09T15:25:48;101029.03;;;14.36;100.00
61506;BME280;47366;51.916;4.574;2023-05-09T15:28:13;101025.53;;;14.34;100.00
61506;BME280;47366;51.916;4.574;2023-05-09T15:30:39;101022.06;;;14.32;100.00
61506;BME280;47366;51.916;4.574;2023-05-09T15:33:06;101022.41;;;14.28;100.00
61506;BME280;47366;51.916;4.574;2023-05-09T15:35:32;101020.56;;;14.28;100.00
61506;BME280;47366;51.916;4.574;2023-05-09T15:37:57;101029.25;;;14.33;100.00
61506;BME280;47366;51.916;4.574;2023-05-09T15:40:23;101029.03;;;14.36;100.00
61506;BME280;47366;51.916;4.574;2023-05-09T15:42:48;101021.38;;;14.41;100.00
61506;BME280;47366;51.916;4.574;2023-05-09T15:45:14;101020.84;;;14.36;100.00
61506;BME280;47366;51.916;4.574;2023-05-09T15:47:40;101012.66;;;14.36;100.00
61506;BME280;47366;51.916;4.574;2023-05-09T15:50:06;101017.03;;;14.39;100.00
61506;BME280;47366;51.916;4.574;2023-05-09T15:52:32;101015.88;;;14.30;100.00
61506;BME280;47366;51.916;4.574;2023-05-09T15:54:57;101011.38;;;14.29;100.00
61506;BME280;47366;51.916;4.574;2023-05-09T15:57:23;101010.19;;;14.33;100.00
61506;BME280;47366;51.916;4.574;2023-05-09T15:59:49;101012.66;;;14.36;100.00
61506;BME280;47366;51.916;4.574;2023-05-09T16:02:14;101013.53;;;14.37;100.00
61506;BME280;47366;51.916;4.574;2023-05-09T16:04:39;101016.41;;;14.35;100.00
61506;BME280;47366;51.916;4.574;2023-05-09T16:07:06;101007.13;;;14.38;100.00
61506;BME280;47366;51.916;4.574;2023-05-09T16:09:32;101008.97;;;14.37;100.00
61506;BME280;47366;51.916;4.574;2023-05-09T16:11:58;101003.06;;;14.43;100.00
61506;BME280;47366;51.916;4.574;2023-05-09T16:14:23;101006.53;;;14.45;100.00
61506;BME280;47366;51.916;4.574;2023-05-09T16:16:49;101003.81;;;14.45;100.00
61506;BME280;47366;51.916;4.574;2023-05-09T16:19:15;100995.38;;;14.49;100.00
61506;BME280;47366;51.916;4.574;2023-05-09T16:21:44;101001.41;;;14.54;100.00
61506;BME280;47366;51.916;4.574;2023-05-09T16:24:10;100999.63;;;14.53;100.00
61506;BME280;47366;51.916;4.574;2023-05-09T16:26:35;101011.31;;;14.55;100.00
61506;BME280;47366;51.916;4.574;2023-05-09T16:29:01;101002.03;;;14.57;100.00
61506;BME280;47366;51.916;4.574;2023-05-09T16:31:26;101002.91;;;14.58;100.00
61506;BME280;47366;51.916;4.574;2023-05-09T16:33:52;101004.66;;;14.59;100.00
61506;BME280;47366;51.916;4.574;2023-05-09T16:36:18;100996.50;;;14.59;100.00
61506;BME280;47366;51.916;4.574;2023-05-09T16:38:43;100987.66;;;14.55;100.00
61506;BME280;47366;51.916;4.574;2023-05-09T16:41:09;100997.69;;;14.55;100.00
61506;BME280;47366;51.916;4.574;2023-05-09T16:43:34;100990.59;;;14.52;100.00
61506;BME280;47366;51.916;4.574;2023-05-09T16:46:00;100991.56;;;14.51;100.00
61506;BME280;47366;51.916;4.574;2023-05-09T16:48:25;100987.75;;;14.54;100.00
61506;BME280;47366;51.916;4.574;2023-05-09T16:50:51;100990.13;;;14.58;100.00
61506;BME280;47366;51.916;4.574;2023-05-09T16:53:18;100995.59;;;14.58;100.00
61506;BME280;47366;51.916;4.574;2023-05-09T16:55:44;100984.81;;;14.57;100.00
61506;BME280;47366;51.916;4.574;2023-05-09T16:58:10;100982.41;;;14.52;100.00
61506;BME280;47366;51.916;4.574;2023-05-09T17:00:36;100983.97;;;14.56;100.00
61506;BME280;47366;51.916;4.574;2023-05-09T17:03:01;100975.78;;;14.56;100.00
61506;BME280;47366;51.916;4.574;2023-05-09T17:05:27;100978.50;;;14.56;100.00
61506;BME280;47366;51.916;4.574;2023-05-09T17:07:52;100981.75;;;14.61;100.00